Riverside, California
Current Conditions -  °F | °C
As of 6:53 PM on Wednesday 22 Oct 2014 (Local Time) from KRAL Reporting Station
Clear Clear  
Wind Chill: 78°   Ceiling: Unl
Heat Index: 79°   Visibility: 10mi
Dew Point: 49°   Wind: 3mph
Humidity: 36%   Direction: 270°W
Pressure: 29.92"   Gusts: NA
Location:  33.98°N, 117.37°W
Report Text: KRAL 230153Z 27003KT 10SM CLR 26/09 A2992 RMK AO2 SLP118 T02560094
Loading
Personal Weather Stations






























Interactive Weather Map
Tropical Storm Tracking
New forecast layout! Learn more

10-Day Weather Forecast

Advertisements
Track Severe Weather on mobile